sensor_id;sensor_type;location;lat;lon;timestamp;pressure;altitude;pressure_sealevel;temperature;humidity
76746;BME280;65671;49.976;20.038;2022-12-29T00:02:20;98001.25;;;2.75;59.52
76746;BME280;65671;49.976;20.038;2022-12-29T00:04:46;98005.94;;;2.78;59.58
76746;BME280;65671;49.976;20.038;2022-12-29T00:07:11;98005.22;;;2.93;58.91
76746;BME280;65671;49.976;20.038;2022-12-29T00:09:37;97998.66;;;2.91;59.00
76746;BME280;65671;49.976;20.038;2022-12-29T00:12:03;98010.03;;;3.15;57.61
76746;BME280;65671;49.976;20.038;2022-12-29T00:14:29;98011.91;;;3.15;57.82
76746;BME280;65671;49.976;20.038;2022-12-29T00:17:13;98011.38;;;3.09;58.36
76746;BME280;65671;49.976;20.038;2022-12-29T00:19:39;98011.97;;;3.03;58.33
76746;BME280;65671;49.976;20.038;2022-12-29T00:22:23;98016.06;;;3.12;58.30
76746;BME280;65671;49.976;20.038;2022-12-29T00:25:10;98011.38;;;3.09;59.17
76746;BME280;65671;49.976;20.038;2022-12-29T00:27:54;98017.06;;;3.08;58.89
76746;BME280;65671;49.976;20.038;2022-12-29T00:30:38;98014.41;;;3.08;58.23
76746;BME280;65671;49.976;20.038;2022-12-29T00:33:26;98015.19;;;3.08;59.27
76746;BME280;65671;49.976;20.038;2022-12-29T00:38:45;98009.72;;;3.05;59.37
76746;BME280;65671;49.976;20.038;2022-12-29T00:41:30;98006.38;;;3.08;59.14
76746;BME280;65671;49.976;20.038;2022-12-29T00:44:14;98015.53;;;3.22;58.14
76746;BME280;65671;49.976;20.038;2022-12-29T00:46:40;98012.44;;;3.20;57.88
76746;BME280;65671;49.976;20.038;2022-12-29T00:49:08;98009.94;;;3.12;58.68
76746;BME280;65671;49.976;20.038;2022-12-29T00:51:54;98013.91;;;3.18;58.11
76746;BME280;65671;49.976;20.038;2022-12-29T00:54:20;98010.59;;;3.09;59.09
76746;BME280;65671;49.976;20.038;2022-12-29T00:56:46;98015.59;;;3.10;58.97
76746;BME280;65671;49.976;20.038;2022-12-29T00:59:12;98012.03;;;3.18;58.27
76746;BME280;65671;49.976;20.038;2022-12-29T01:01:38;98013.72;;;3.11;59.21
76746;BME280;65671;49.976;20.038;2022-12-29T01:04:05;98022.19;;;3.13;58.15
76746;BME280;65671;49.976;20.038;2022-12-29T01:06:32;98019.78;;;3.23;58.03
76746;BME280;65671;49.976;20.038;2022-12-29T01:08:57;98025.03;;;3.20;57.67
76746;BME280;65671;49.976;20.038;2022-12-29T01:11:41;98029.34;;;3.09;59.28
76746;BME280;65671;49.976;20.038;2022-12-29T01:14:07;98027.88;;;3.11;58.28
76746;BME280;65671;49.976;20.038;2022-12-29T01:16:33;98029.91;;;3.02;59.27
76746;BME280;65671;49.976;20.038;2022-12-29T01:18:59;98025.81;;;2.93;59.82
76746;BME280;65671;49.976;20.038;2022-12-29T01:21:27;98019.94;;;2.87;59.67
76746;BME280;65671;49.976;20.038;2022-12-29T01:23:53;98020.25;;;2.98;60.12
76746;BME280;65671;49.976;20.038;2022-12-29T01:26:18;98012.19;;;3.10;58.11
76746;BME280;65671;49.976;20.038;2022-12-29T01:28:44;98006.16;;;3.13;59.08
76746;BME280;65671;49.976;20.038;2022-12-29T01:31:11;97996.03;;;3.06;60.04
76746;BME280;65671;49.976;20.038;2022-12-29T01:33:37;97990.00;;;3.25;58.40
76746;BME280;65671;49.976;20.038;2022-12-29T01:36:03;97981.28;;;3.28;59.10
76746;BME280;65671;49.976;20.038;2022-12-29T01:38:29;97973.81;;;3.33;58.07
76746;BME280;65671;49.976;20.038;2022-12-29T01:40:55;97976.91;;;3.35;58.49
76746;BME280;65671;49.976;20.038;2022-12-29T01:43:20;97970.00;;;3.34;58.14
76746;BME280;65671;49.976;20.038;2022-12-29T01:45:50;97969.59;;;3.48;57.37
76746;BME280;65671;49.976;20.038;2022-12-29T01:48:17;97965.16;;;3.56;57.74
76746;BME280;65671;49.976;20.038;2022-12-29T01:50:46;97969.06;;;3.58;57.53
76746;BME280;65671;49.976;20.038;2022-12-29T01:53:22;97971.47;;;3.63;57.78
76746;BME280;65671;49.976;20.038;2022-12-29T01:55:55;97967.53;;;3.57;58.86
76746;BME280;65671;49.976;20.038;2022-12-29T01:58:24;97966.66;;;3.69;57.00
76746;BME280;65671;49.976;20.038;2022-12-29T02:00:52;97976.75;;;3.60;58.28
76746;BME280;65671;49.976;20.038;2022-12-29T02:03:17;97974.81;;;3.60;59.22
76746;BME280;65671;49.976;20.038;2022-12-29T02:05:49;97979.66;;;3.55;59.06
76746;BME280;65671;49.976;20.038;2022-12-29T02:08:17;97973.81;;;3.65;57.80
76746;BME280;65671;49.976;20.038;2022-12-29T02:10:44;97977.97;;;3.62;59.13
76746;BME280;65671;49.976;20.038;2022-12-29T02:13:10;97969.66;;;3.67;58.45
76746;BME280;65671;49.976;20.038;2022-12-29T02:15:41;97959.63;;;3.80;57.64
76746;BME280;65671;49.976;20.038;2022-12-29T02:37:29;97941.56;;;3.92;58.36
76746;BME280;65671;49.976;20.038;2022-12-29T02:42:52;97929.25;;;4.07;57.43
76746;BME280;65671;49.976;20.038;2022-12-29T02:48:25;97917.47;;;4.12;58.45
76746;BME280;65671;49.976;20.038;2022-12-29T02:51:02;97912.13;;;4.12;57.50
76746;BME280;65671;49.976;20.038;2022-12-29T02:53:31;97912.81;;;4.09;57.76
76746;BME280;65671;49.976;20.038;2022-12-29T02:56:17;97918.69;;;4.14;58.44
76746;BME280;65671;49.976;20.038;2022-12-29T02:58:42;97894.03;;;4.24;57.47
76746;BME280;65671;49.976;20.038;2022-12-29T03:03:52;97897.53;;;4.28;57.14
76746;BME280;65671;49.976;20.038;2022-12-29T03:06:38;97895.72;;;4.32;57.15
76746;BME280;65671;49.976;20.038;2022-12-29T03:12:01;97907.91;;;4.49;56.61
76746;BME280;65671;49.976;20.038;2022-12-29T03:17:43;97905.50;;;4.44;57.60
76746;BME280;65671;49.976;20.038;2022-12-29T03:20:24;97900.84;;;4.41;57.10
76746;BME280;65671;49.976;20.038;2022-12-29T03:22:56;97890.50;;;4.39;57.94
76746;BME280;65671;49.976;20.038;2022-12-29T03:25:29;97885.78;;;4.33;57.76
76746;BME280;65671;49.976;20.038;2022-12-29T03:27:58;97875.06;;;4.33;57.85
76746;BME280;65671;49.976;20.038;2022-12-29T03:30:26;97877.31;;;4.31;57.83
76746;BME280;65671;49.976;20.038;2022-12-29T03:33:00;97880.03;;;4.34;57.00
76746;BME280;65671;49.976;20.038;2022-12-29T03:35:30;97878.84;;;4.32;57.79
76746;BME280;65671;49.976;20.038;2022-12-29T03:40:42;97874.06;;;4.22;57.83
76746;BME280;65671;49.976;20.038;2022-12-29T03:43:09;97890.28;;;4.29;57.56
76746;BME280;65671;49.976;20.038;2022-12-29T03:45:35;97880.75;;;4.31;56.96
76746;BME280;65671;49.976;20.038;2022-12-29T03:48:01;97893.81;;;4.33;56.86
76746;BME280;65671;49.976;20.038;2022-12-29T03:50:26;97896.78;;;4.47;57.06
76746;BME280;65671;49.976;20.038;2022-12-29T03:52:52;97890.13;;;4.41;57.54
76746;BME280;65671;49.976;20.038;2022-12-29T03:57:53;97877.16;;;4.43;55.83
76746;BME280;65671;49.976;20.038;2022-12-29T04:00:18;97877.44;;;4.38;56.18
76746;BME280;65671;49.976;20.038;2022-12-29T04:02:44;97886.63;;;4.37;56.79
76746;BME280;65671;49.976;20.038;2022-12-29T04:05:09;97892.25;;;4.51;56.21
76746;BME280;65671;49.976;20.038;2022-12-29T04:07:35;97899.50;;;4.31;57.81
76746;BME280;65671;49.976;20.038;2022-12-29T04:10:00;97905.41;;;4.37;57.13
76746;BME280;65671;49.976;20.038;2022-12-29T04:12:26;97904.81;;;4.28;57.51
76746;BME280;65671;49.976;20.038;2022-12-29T04:14:51;97894.16;;;4.31;57.20
76746;BME280;65671;49.976;20.038;2022-12-29T04:17:17;97896.13;;;4.34;57.47
76746;BME280;65671;49.976;20.038;2022-12-29T04:19:42;97902.72;;;4.37;56.77
76746;BME280;65671;49.976;20.038;2022-12-29T04:22:08;97904.81;;;4.28;57.28
76746;BME280;65671;49.976;20.038;2022-12-29T04:24:33;97914.25;;;4.22;57.71
76746;BME280;65671;49.976;20.038;2022-12-29T04:26:58;97928.50;;;4.26;57.85
76746;BME280;65671;49.976;20.038;2022-12-29T04:29:24;97905.00;;;4.19;57.07
76746;BME280;65671;49.976;20.038;2022-12-29T04:31:49;97917.19;;;4.17;57.86
76746;BME280;65671;49.976;20.038;2022-12-29T04:34:15;97903.88;;;4.01;58.96
76746;BME280;65671;49.976;20.038;2022-12-29T04:36:40;97898.56;;;4.05;58.19
76746;BME280;65671;49.976;20.038;2022-12-29T04:39:06;97897.53;;;4.09;57.90
76746;BME280;65671;49.976;20.038;2022-12-29T04:41:32;97901.00;;;4.10;58.01
76746;BME280;65671;49.976;20.038;2022-12-29T04:43:57;97896.66;;;4.05;58.58
76746;BME280;65671;49.976;20.038;2022-12-29T04:46:23;97887.44;;;4.03;57.66
76746;BME280;65671;49.976;20.038;2022-12-29T04:48:48;97887.00;;;4.01;58.42
76746;BME280;65671;49.976;20.038;2022-12-29T04:51:14;97883.47;;;3.97;58.13
76746;BME280;65671;49.976;20.038;2022-12-29T04:53:39;97873.63;;;4.01;58.18
76746;BME280;65671;49.976;20.038;2022-12-29T04:56:05;97875.56;;;3.84;59.00
76746;BME280;65671;49.976;20.038;2022-12-29T04:58:31;97867.28;;;3.89;58.84
76746;BME280;65671;49.976;20.038;2022-12-29T05:00:56;97860.50;;;3.96;58.48
76746;BME280;65671;49.976;20.038;2022-12-29T05:03:22;97862.88;;;3.81;60.05
76746;BME280;65671;49.976;20.038;2022-12-29T05:05:47;97859.50;;;3.84;60.47
76746;BME280;65671;49.976;20.038;2022-12-29T05:08:13;97877.72;;;3.79;60.14
76746;BME280;65671;49.976;20.038;2022-12-29T05:10:38;97876.25;;;3.81;60.62
76746;BME280;65671;49.976;20.038;2022-12-29T05:13:04;97871.06;;;3.88;60.13
76746;BME280;65671;49.976;20.038;2022-12-29T05:15:29;97862.16;;;3.84;60.14
76746;BME280;65671;49.976;20.038;2022-12-29T05:18:16;97865.72;;;3.88;60.66
76746;BME280;65671;49.976;20.038;2022-12-29T05:20:42;97855.06;;;3.92;59.45
76746;BME280;65671;49.976;20.038;2022-12-29T05:23:08;97857.88;;;3.80;60.44
76746;BME280;65671;49.976;20.038;2022-12-29T05:25:33;97861.44;;;3.68;60.33
76746;BME280;65671;49.976;20.038;2022-12-29T05:27:59;97861.63;;;3.60;60.97
76746;BME280;65671;49.976;20.038;2022-12-29T05:30:24;97857.75;;;3.57;61.37
76746;BME280;65671;49.976;20.038;2022-12-29T05:32:50;97849.00;;;3.60;61.23
76746;BME280;65671;49.976;20.038;2022-12-29T05:35:15;97852.03;;;3.59;61.03
76746;BME280;65671;49.976;20.038;2022-12-29T05:37:40;97849.88;;;3.64;61.77
76746;BME280;65671;49.976;20.038;2022-12-29T05:40:07;97839.09;;;3.61;62.44
76746;BME280;65671;49.976;20.038;2022-12-29T05:42:32;97842.59;;;3.80;61.53
76746;BME280;65671;49.976;20.038;2022-12-29T05:44:58;97836.59;;;3.87;62.16
76746;BME280;65671;49.976;20.038;2022-12-29T05:47:23;97839.50;;;3.98;62.55
76746;BME280;65671;49.976;20.038;2022-12-29T05:49:52;97835.63;;;4.14;61.18
76746;BME280;65671;49.976;20.038;2022-12-29T05:52:41;97833.78;;;4.18;61.32
76746;BME280;65671;49.976;20.038;2022-12-29T05:55:07;97823.00;;;4.34;60.32
76746;BME280;65671;49.976;20.038;2022-12-29T05:57:33;97822.63;;;4.35;60.52
76746;BME280;65671;49.976;20.038;2022-12-29T05:59:58;97835.25;;;4.35;59.83
76746;BME280;65671;49.976;20.038;2022-12-29T06:02:24;97835.69;;;4.37;59.60
76746;BME280;65671;49.976;20.038;2022-12-29T06:04:49;97849.72;;;4.30;60.02
76746;BME280;65671;49.976;20.038;2022-12-29T06:07:15;97846.50;;;4.21;60.65
76746;BME280;65671;49.976;20.038;2022-12-29T06:09:40;97841.59;;;4.08;62.21
76746;BME280;65671;49.976;20.038;2022-12-29T06:12:06;97837.50;;;4.14;61.54
76746;BME280;65671;49.976;20.038;2022-12-29T06:14:31;97840.47;;;4.09;61.88
76746;BME280;65671;49.976;20.038;2022-12-29T06:16:57;97846.69;;;4.13;61.88
76746;BME280;65671;49.976;20.038;2022-12-29T06:19:23;97843.16;;;4.09;61.61
76746;BME280;65671;49.976;20.038;2022-12-29T06:21:48;97849.38;;;4.13;61.00
76746;BME280;65671;49.976;20.038;2022-12-29T06:24:14;97851.50;;;4.04;62.19
76746;BME280;65671;49.976;20.038;2022-12-29T06:26:39;97845.28;;;4.19;61.04
76746;BME280;65671;49.976;20.038;2022-12-29T06:29:06;97843.66;;;4.14;62.00
76746;BME280;65671;49.976;20.038;2022-12-29T06:31:33;97840.19;;;4.14;61.36
76746;BME280;65671;49.976;20.038;2022-12-29T06:33:58;97832.28;;;4.40;59.81
76746;BME280;65671;49.976;20.038;2022-12-29T06:36:24;97847.41;;;4.48;59.65
76746;BME280;65671;49.976;20.038;2022-12-29T06:38:50;97840.47;;;4.47;60.32
76746;BME280;65671;49.976;20.038;2022-12-29T06:41:18;97845.41;;;4.45;59.57
76746;BME280;65671;49.976;20.038;2022-12-29T06:43:44;97846.19;;;4.45;60.11
76746;BME280;65671;49.976;20.038;2022-12-29T06:46:09;97845.44;;;4.68;58.96
76746;BME280;65671;49.976;20.038;2022-12-29T06:48:35;97839.19;;;4.60;60.02
76746;BME280;65671;49.976;20.038;2022-12-29T06:51:00;97834.16;;;4.59;58.72
76746;BME280;65671;49.976;20.038;2022-12-29T06:53:26;97829.53;;;4.56;59.02
76746;BME280;65671;49.976;20.038;2022-12-29T06:55:51;97849.47;;;4.58;60.29
76746;BME280;65671;49.976;20.038;2022-12-29T06:58:17;97841.31;;;4.51;59.67
76746;BME280;65671;49.976;20.038;2022-12-29T07:00:43;97839.75;;;4.50;59.75
76746;BME280;65671;49.976;20.038;2022-12-29T07:03:09;97837.72;;;4.43;60.47
76746;BME280;65671;49.976;20.038;2022-12-29T07:05:34;97830.16;;;4.49;60.30
76746;BME280;65671;49.976;20.038;2022-12-29T07:08:00;97819.56;;;4.56;58.86
76746;BME280;65671;49.976;20.038;2022-12-29T07:10:26;97818.44;;;4.57;59.30
76746;BME280;65671;49.976;20.038;2022-12-29T07:12:52;97813.84;;;4.58;59.86
76746;BME280;65671;49.976;20.038;2022-12-29T07:15:17;97810.50;;;4.64;59.23
76746;BME280;65671;49.976;20.038;2022-12-29T07:17:43;97812.56;;;4.71;58.77
76746;BME280;65671;49.976;20.038;2022-12-29T07:20:09;97810.50;;;4.64;60.04
76746;BME280;65671;49.976;20.038;2022-12-29T07:22:35;97801.34;;;4.65;59.67
76746;BME280;65671;49.976;20.038;2022-12-29T07:25:01;97809.22;;;4.77;59.31
76746;BME280;65671;49.976;20.038;2022-12-29T07:27:27;97808.03;;;4.75;59.29
76746;BME280;65671;49.976;20.038;2022-12-29T07:29:53;97809.63;;;4.79;59.09
76746;BME280;65671;49.976;20.038;2022-12-29T07:32:18;97816.25;;;4.85;59.22
76746;BME280;65671;49.976;20.038;2022-12-29T07:34:44;97813.34;;;4.94;58.38
76746;BME280;65671;49.976;20.038;2022-12-29T07:37:14;97811.03;;;4.92;58.50
76746;BME280;65671;49.976;20.038;2022-12-29T07:39:40;97811.25;;;5.06;58.11
76746;BME280;65671;49.976;20.038;2022-12-29T07:42:05;97817.44;;;5.11;58.15
76746;BME280;65671;49.976;20.038;2022-12-29T07:44:31;97818.44;;;5.02;58.99
76746;BME280;65671;49.976;20.038;2022-12-29T07:46:56;97827.34;;;5.06;59.02
76746;BME280;65671;49.976;20.038;2022-12-29T07:49:22;97829.63;;;5.04;58.61
76746;BME280;65671;49.976;20.038;2022-12-29T07:51:48;97830.78;;;4.84;59.47
76746;BME280;65671;49.976;20.038;2022-12-29T07:54:13;97830.53;;;4.47;61.41
76746;BME280;65671;49.976;20.038;2022-12-29T07:56:39;97839.91;;;4.57;61.30
76746;BME280;65671;49.976;20.038;2022-12-29T07:59:05;97844.13;;;4.58;60.92
76746;BME280;65671;49.976;20.038;2022-12-29T08:01:31;97836.56;;;4.64;61.15
76746;BME280;65671;49.976;20.038;2022-12-29T08:03:56;97825.25;;;4.74;60.29
76746;BME280;65671;49.976;20.038;2022-12-29T08:06:22;97831.63;;;4.88;59.33
76746;BME280;65671;49.976;20.038;2022-12-29T08:08:47;97826.88;;;5.01;58.71
76746;BME280;65671;49.976;20.038;2022-12-29T08:11:13;97820.16;;;5.14;58.74
76746;BME280;65671;49.976;20.038;2022-12-29T08:13:38;97812.91;;;5.15;59.07
76746;BME280;65671;49.976;20.038;2022-12-29T08:16:04;97814.47;;;5.16;59.43
76746;BME280;65671;49.976;20.038;2022-12-29T08:18:29;97814.50;;;5.19;58.88
76746;BME280;65671;49.976;20.038;2022-12-29T08:20:55;97815.38;;;5.27;58.99
76746;BME280;65671;49.976;20.038;2022-12-29T08:23:20;97819.19;;;5.48;57.36
76746;BME280;65671;49.976;20.038;2022-12-29T08:25:46;97815.38;;;5.53;58.64
76746;BME280;65671;49.976;20.038;2022-12-29T08:28:11;97815.75;;;5.51;58.27
76746;BME280;65671;49.976;20.038;2022-12-29T08:30:37;97819.69;;;5.57;57.73
76746;BME280;65671;49.976;20.038;2022-12-29T08:33:02;97809.69;;;5.58;58.62
76746;BME280;65671;49.976;20.038;2022-12-29T08:35:28;97823.63;;;5.63;58.91
76746;BME280;65671;49.976;20.038;2022-12-29T08:37:53;97830.34;;;5.80;57.67
76746;BME280;65671;49.976;20.038;2022-12-29T08:40:19;97827.09;;;5.94;58.12
76746;BME280;65671;49.976;20.038;2022-12-29T08:42:44;97839.78;;;5.93;58.37
76746;BME280;65671;49.976;20.038;2022-12-29T08:45:10;97835.66;;;6.03;58.19
76746;BME280;65671;49.976;20.038;2022-12-29T08:47:35;97833.84;;;6.10;57.83
76746;BME280;65671;49.976;20.038;2022-12-29T08:50:01;97835.84;;;6.17;57.55
76746;BME280;65671;49.976;20.038;2022-12-29T08:52:26;97843.16;;;6.16;58.01
76746;BME280;65671;49.976;20.038;2022-12-29T08:54:52;97826.09;;;6.05;59.35
76746;BME280;65671;49.976;20.038;2022-12-29T08:57:17;97832.84;;;6.22;58.58
76746;BME280;65671;49.976;20.038;2022-12-29T08:59:43;97831.88;;;6.41;58.25
76746;BME280;65671;49.976;20.038;2022-12-29T09:02:12;97826.97;;;6.46;57.83
76746;BME280;65671;49.976;20.038;2022-12-29T09:04:37;97823.22;;;6.54;57.88
76746;BME280;65671;49.976;20.038;2022-12-29T09:07:03;97824.47;;;6.64;57.84
76746;BME280;65671;49.976;20.038;2022-12-29T09:09:28;97819.50;;;6.66;57.97
76746;BME280;65671;49.976;20.038;2022-12-29T09:11:54;97821.47;;;6.72;57.97
76746;BME280;65671;49.976;20.038;2022-12-29T09:14:19;97808.50;;;6.82;57.43
76746;BME280;65671;49.976;20.038;2022-12-29T09:16:46;97808.94;;;6.87;57.94
76746;BME280;65671;49.976;20.038;2022-12-29T09:19:30;97813.34;;;7.09;56.50
76746;BME280;65671;49.976;20.038;2022-12-29T09:21:55;97815.00;;;7.24;55.78
76746;BME280;65671;49.976;20.038;2022-12-29T09:24:21;97814.22;;;7.24;56.42
76746;BME280;65671;49.976;20.038;2022-12-29T09:26:46;97800.41;;;7.25;55.48
76746;BME280;65671;49.976;20.038;2022-12-29T09:29:12;97808.19;;;7.41;55.48
76746;BME280;65671;49.976;20.038;2022-12-29T09:31:37;97807.88;;;7.53;55.63
76746;BME280;65671;49.976;20.038;2022-12-29T09:34:03;97809.06;;;7.59;55.34
76746;BME280;65671;49.976;20.038;2022-12-29T09:36:28;97808.75;;;7.64;55.83
76746;BME280;65671;49.976;20.038;2022-12-29T09:38:54;97797.53;;;7.62;55.57
76746;BME280;65671;49.976;20.038;2022-12-29T09:41:26;97793.38;;;7.72;55.04
76746;BME280;65671;49.976;20.038;2022-12-29T09:44:26;97794.59;;;7.88;54.94
76746;BME280;65671;49.976;20.038;2022-12-29T09:46:56;97785.81;;;8.02;54.50
76746;BME280;65671;49.976;20.038;2022-12-29T09:51:56;97772.84;;;8.29;55.12
76746;BME280;65671;49.976;20.038;2022-12-29T09:54:36;97776.31;;;8.36;53.07
76746;BME280;65671;49.976;20.038;2022-12-29T09:57:05;97768.63;;;8.46;52.88
76746;BME280;65671;49.976;20.038;2022-12-29T09:59:42;97773.66;;;8.47;52.76
76746;BME280;65671;49.976;20.038;2022-12-29T10:04:59;97782.56;;;8.69;52.16
76746;BME280;65671;49.976;20.038;2022-12-29T10:18:27;97779.44;;;8.49;53.26
76746;BME280;65671;49.976;20.038;2022-12-29T10:21:25;97784.44;;;8.51;52.70
76746;BME280;65671;49.976;20.038;2022-12-29T10:23:53;97785.63;;;8.50;52.96
76746;BME280;65671;49.976;20.038;2022-12-29T10:26:28;97786.38;;;8.47;53.79
76746;BME280;65671;49.976;20.038;2022-12-29T10:29:21;97783.69;;;8.54;53.48
76746;BME280;65671;49.976;20.038;2022-12-29T10:31:56;97782.56;;;8.62;52.28
76746;BME280;65671;49.976;20.038;2022-12-29T10:34:38;97784.09;;;8.66;53.30
76746;BME280;65671;49.976;20.038;2022-12-29T10:39:52;97784.13;;;8.84;52.60
76746;BME280;65671;49.976;20.038;2022-12-29T10:42:29;97783.34;;;9.05;52.16
76746;BME280;65671;49.976;20.038;2022-12-29T10:44:58;97775.63;;;9.07;52.73
76746;BME280;65671;49.976;20.038;2022-12-29T10:47:29;97772.94;;;9.17;51.88
76746;BME280;65671;49.976;20.038;2022-12-29T10:49:55;97779.88;;;9.22;51.97
76746;BME280;65671;49.976;20.038;2022-12-29T10:52:25;97773.31;;;9.26;51.86
76746;BME280;65671;49.976;20.038;2022-12-29T10:55:15;97771.72;;;9.57;50.11
76746;BME280;65671;49.976;20.038;2022-12-29T10:57:44;97774.00;;;9.73;51.53
76746;BME280;65671;49.976;20.038;2022-12-29T11:05:33;97758.06;;;10.03;50.91
76746;BME280;65671;49.976;20.038;2022-12-29T11:08:04;97752.19;;;10.22;51.03
76746;BME280;65671;49.976;20.038;2022-12-29T11:13:20;97757.13;;;10.45;49.23
76746;BME280;65671;49.976;20.038;2022-12-29T11:15:50;97743.94;;;10.50;49.37
76746;BME280;65671;49.976;20.038;2022-12-29T11:18:36;97755.09;;;10.56;50.08
76746;BME280;65671;49.976;20.038;2022-12-29T11:21:26;97748.94;;;10.48;48.63
76746;BME280;65671;49.976;20.038;2022-12-29T11:24:04;97755.16;;;10.45;51.26
76746;BME280;65671;49.976;20.038;2022-12-29T11:26:32;97761.75;;;10.44;49.40
76746;BME280;65671;49.976;20.038;2022-12-29T11:31:45;97753.97;;;10.50;51.22
76746;BME280;65671;49.976;20.038;2022-12-29T11:34:24;97752.09;;;10.36;50.48
76746;BME280;65671;49.976;20.038;2022-12-29T11:36:52;97757.91;;;10.38;49.29
76746;BME280;65671;49.976;20.038;2022-12-29T11:39:29;97750.16;;;10.40;50.64
76746;BME280;65671;49.976;20.038;2022-12-29T11:41:56;97753.31;;;10.32;49.33
76746;BME280;65671;49.976;20.038;2022-12-29T11:44:22;97753.31;;;10.28;50.20
76746;BME280;65671;49.976;20.038;2022-12-29T11:46:51;97755.69;;;10.19;50.70
76746;BME280;65671;49.976;20.038;2022-12-29T11:49:23;97753.00;;;10.08;51.03
76746;BME280;65671;49.976;20.038;2022-12-29T11:51:51;97753.44;;;10.00;51.70
76746;BME280;65671;49.976;20.038;2022-12-29T11:54:32;97743.41;;;10.00;50.68
76746;BME280;65671;49.976;20.038;2022-12-29T11:57:15;97749.53;;;10.12;51.74
76746;BME280;65671;49.976;20.038;2022-12-29T12:00:03;97737.09;;;10.28;51.58
76746;BME280;65671;49.976;20.038;2022-12-29T12:05:14;97741.63;;;10.45;50.84
76746;BME280;65671;49.976;20.038;2022-12-29T12:07:55;97736.94;;;10.56;50.77
76746;BME280;65671;49.976;20.038;2022-12-29T12:13:35;97736.47;;;10.65;48.03
76746;BME280;65671;49.976;20.038;2022-12-29T12:16:41;97739.97;;;10.66;48.96
76746;BME280;65671;49.976;20.038;2022-12-29T12:22:23;97729.97;;;10.55;50.76
76746;BME280;65671;49.976;20.038;2022-12-29T12:25:09;97721.41;;;10.64;49.13
76746;BME280;65671;49.976;20.038;2022-12-29T12:27:43;97726.34;;;10.76;48.88
76746;BME280;65671;49.976;20.038;2022-12-29T12:30:15;97715.88;;;10.78;48.86
76746;BME280;65671;49.976;20.038;2022-12-29T12:35:48;97715.09;;;10.78;49.01
76746;BME280;65671;49.976;20.038;2022-12-29T12:38:24;97722.13;;;10.72;49.81
76746;BME280;65671;49.976;20.038;2022-12-29T12:43:43;97720.69;;;10.56;49.37
76746;BME280;65671;49.976;20.038;2022-12-29T12:49:29;97716.06;;;10.53;50.07
76746;BME280;65671;49.976;20.038;2022-12-29T12:52:03;97720.72;;;10.49;50.01
76746;BME280;65671;49.976;20.038;2022-12-29T13:00:22;97714.72;;;10.21;49.92
76746;BME280;65671;49.976;20.038;2022-12-29T13:10:54;97726.38;;;10.00;52.03
76746;BME280;65671;49.976;20.038;2022-12-29T13:30:15;97734.56;;;9.86;53.09
76746;BME280;65671;49.976;20.038;2022-12-29T13:36:02;97728.34;;;9.92;52.33
76746;BME280;65671;49.976;20.038;2022-12-29T13:38:34;97728.34;;;9.96;51.47
76746;BME280;65671;49.976;20.038;2022-12-29T13:41:12;97731.03;;;9.96;51.86
76746;BME280;65671;49.976;20.038;2022-12-29T13:43:42;97733.72;;;9.99;52.11
76746;BME280;65671;49.976;20.038;2022-12-29T13:46:31;97738.00;;;9.97;52.07
76746;BME280;65671;49.976;20.038;2022-12-29T13:49:08;97739.56;;;9.94;52.13
76746;BME280;65671;49.976;20.038;2022-12-29T13:51:42;97741.47;;;9.94;51.53
76746;BME280;65671;49.976;20.038;2022-12-29T13:54:30;97747.31;;;9.78;52.14
76746;BME280;65671;49.976;20.038;2022-12-29T13:57:10;97744.69;;;9.64;54.01
76746;BME280;65671;49.976;20.038;2022-12-29T14:00:11;97751.66;;;9.54;53.90
76746;BME280;65671;49.976;20.038;2022-12-29T14:07:43;97746.31;;;9.02;54.29
76746;BME280;65671;49.976;20.038;2022-12-29T14:13:17;97742.88;;;8.76;53.92
76746;BME280;65671;49.976;20.038;2022-12-29T14:15:57;97732.81;;;8.56;54.49
76746;BME280;65671;49.976;20.038;2022-12-29T14:18:43;97745.91;;;8.54;54.48
76746;BME280;65671;49.976;20.038;2022-12-29T14:23:45;97750.50;;;8.32;55.23
76746;BME280;65671;49.976;20.038;2022-12-29T14:26:34;97745.09;;;8.28;54.47
76746;BME280;65671;49.976;20.038;2022-12-29T14:31:51;97739.72;;;8.32;54.65
76746;BME280;65671;49.976;20.038;2022-12-29T14:39:39;97738.44;;;8.05;56.21
76746;BME280;65671;49.976;20.038;2022-12-29T14:42:19;97742.69;;;8.09;55.57
76746;BME280;65671;49.976;20.038;2022-12-29T14:45:05;97735.00;;;8.15;56.61
76746;BME280;65671;49.976;20.038;2022-12-29T14:47:53;97739.59;;;8.04;56.15
76746;BME280;65671;49.976;20.038;2022-12-29T14:50:23;97758.47;;;8.04;55.63
76746;BME280;65671;49.976;20.038;2022-12-29T14:52:53;97751.91;;;7.98;56.01
76746;BME280;65671;49.976;20.038;2022-12-29T14:55:54;97749.59;;;7.96;56.75
76746;BME280;65671;49.976;20.038;2022-12-29T14:58:32;97758.88;;;8.02;55.27
76746;BME280;65671;49.976;20.038;2022-12-29T15:01:00;97758.03;;;7.88;56.85
76746;BME280;65671;49.976;20.038;2022-12-29T15:03:30;97755.34;;;7.88;57.35
76746;BME280;65671;49.976;20.038;2022-12-29T15:06:09;97757.63;;;7.89;55.95
76746;BME280;65671;49.976;20.038;2022-12-29T15:11:23;97767.94;;;7.69;56.88
76746;BME280;65671;49.976;20.038;2022-12-29T15:13:50;97764.81;;;7.60;57.11
76746;BME280;65671;49.976;20.038;2022-12-29T15:16:26;97770.91;;;7.50;57.95
76746;BME280;65671;49.976;20.038;2022-12-29T15:18:53;97768.22;;;7.50;57.84
76746;BME280;65671;49.976;20.038;2022-12-29T15:21:27;97765.91;;;7.49;57.41
76746;BME280;65671;49.976;20.038;2022-12-29T15:23:54;97762.00;;;7.39;57.98
76746;BME280;65671;49.976;20.038;2022-12-29T15:26:20;97761.66;;;7.48;57.26
76746;BME280;65671;49.976;20.038;2022-12-29T15:28:51;97758.50;;;7.32;57.87
76746;BME280;65671;49.976;20.038;2022-12-29T15:31:22;97766.16;;;7.29;58.16
76746;BME280;65671;49.976;20.038;2022-12-29T15:33:54;97753.00;;;7.17;58.67
76746;BME280;65671;49.976;20.038;2022-12-29T15:36:22;97756.94;;;7.27;58.34
76746;BME280;65671;49.976;20.038;2022-12-29T15:38:49;97749.22;;;7.25;58.20
76746;BME280;65671;49.976;20.038;2022-12-29T15:46:13;97751.47;;;7.16;58.46